KCGI/CGI METAR and TAF weather

Enter ICAO airport designator
Station Type Date Time Source
KCGI METAR 2018/12/10 18:53 UTC NOAA

KCGI 101853Z 34004KT 10SM CLR 04/M07 A3030 RMK AO2 SLP263 T00441067


Station Type Date Time Source
KCGI Decoded METAR 2018/12/10 18:53 UTC NOAA

CAPE GIRARDEAU REGIONAL, MO, United States (KCGI) 37-14N 089-35W 102M
Dec 10, 2018 - 01:53 PM EST / 2018.12.10 1853 UTC
Wind: from the NNW (340 degrees) at 5 MPH (4 KT):0
Visibility: 10 mile(s):0
Sky conditions: clear
Temperature: 39.9 F (4.4 C)
Dew Point: 19.9 F (-6.7 C)
Relative Humidity: 44%
Pressure (altimeter): 30.3 in. Hg (1026 hPa)
ob: KCGI 101853Z 34004KT 10SM CLR 04/M07 A3030 RMK AO2 SLP263 T00441067
cycle: 19

Station Type Date Time Source
KCGI TAF 2018/12/10 18:33 UTC NOAA

TAF KCGI 101730Z 1018/1118 36005KT P6SM FEW250
FM110100 00000KT P6SM SKC
FM111500 21006KT P6SM SKC


Example: see airport list